Maize, Kansas
Current Conditions -  °F | °C
As of 11:53 PM on Tuesday 25 Nov 2014 (Local Time) from KICT Reporting Station
Broken Clouds Broken Clouds  
Wind Chill: 35°   Ceiling: 13000
Heat Index: 42°   Visibility: 10mi
Dew Point: 27°   Wind: 13mph
Humidity: 55%   Direction: 180°S
Pressure: 29.94"   Gusts: NA
Location:  37.78°N, 97.47°W
Report Text: KICT 260553Z 18011KT 10SM SCT100 BKN130 BKN200 06/M03 A2994 RMK AO2 SLP143 T00561028 10072 20056 401061039 58014
Loading
Personal Weather Stations






























Interactive Weather Map New forecast layout! Learn more

10-Day Weather Forecast

Advertisements
Track Severe Weather on mobile